Time;durP1;ratioP1;P1;durP2;ratioP2;P2;SDS_P1;SDS_P2;PMS_P1;PMS_P2;Temp;Humidity;BMP_temperature;BMP_pressure;BME280_temperature;BME280_humidity;BME280_pressure;Samples;Min_cycle;Max_cycle;Signal;HPM_P1;HPM_P2
2022/12/29 00:00:15;;;;;;;1.77;1.67;;;;;;;;;;5095228;28;20447;-67
2022/12/29 00:02:42;;;;;;;2.17;1.30;;;;;;;;;;5095063;28;20589;-67
2022/12/29 00:05:09;;;;;;;1.47;1.30;;;;;;;;;;5095009;28;20534;-67
2022/12/29 00:07:36;;;;;;;1.37;1.27;;;;;;;;;;5095019;28;20542;-67
2022/12/29 00:10:04;;;;;;;1.83;1.60;;;;;;;;;;5094870;28;20459;-67
2022/12/29 00:15:36;;;;;;;1.40;1.30;;;;;;;;;;5094356;28;20889;-67
2022/12/29 00:18:03;;;;;;;2.23;1.30;;;;;;;;;;5095098;28;20790;-67
2022/12/29 00:37:02;;;;;;;2.93;1.60;;;;;;;;;;5094439;28;20529;-67
2022/12/29 00:45:00;;;;;;;2.30;1.40;;;;;;;;;;5094099;28;20485;-67
2022/12/29 00:47:27;;;;;;;1.40;1.30;;;;;;;;;;5094364;28;20550;-67
2022/12/29 00:49:53;;;;;;;1.13;1.03;;;;;;;;;;5094305;28;20542;-67
2022/12/29 00:52:20;;;;;;;1.30;1.20;;;;;;;;;;5094196;28;20463;-67
2022/12/29 00:54:47;;;;;;;1.60;1.30;;;;;;;;;;5094324;28;20508;-67
2022/12/29 00:57:15;;;;;;;1.43;1.33;;;;;;;;;;5094018;28;20530;-67
2022/12/29 00:59:43;;;;;;;1.83;1.73;;;;;;;;;;5093937;28;20479;-67
2022/12/29 01:02:10;;;;;;;1.43;1.33;;;;;;;;;;5093721;28;20457;-67
2022/12/29 01:04:37;;;;;;;2.60;1.30;;;;;;;;;;5094024;28;20898;-67
2022/12/29 01:07:04;;;;;;;1.40;1.30;;;;;;;;;;5093985;28;20455;-67
2022/12/29 01:12:39;;;;;;;1.57;1.40;;;;;;;;;;5093789;28;20454;-67
2022/12/29 01:15:05;;;;;;;1.20;1.10;;;;;;;;;;5093537;28;20516;-67
2022/12/29 01:17:32;;;;;;;1.30;1.20;;;;;;;;;;5093787;28;20486;-67
2022/12/29 01:19:59;;;;;;;1.43;1.33;;;;;;;;;;5093613;28;20806;-67
2022/12/29 01:22:26;;;;;;;1.97;1.67;;;;;;;;;;5093752;28;20471;-67
2022/12/29 01:24:53;;;;;;;2.63;1.40;;;;;;;;;;5092568;28;20517;-67
2022/12/29 01:27:21;;;;;;;1.77;1.50;;;;;;;;;;5093644;28;20537;-67
2022/12/29 01:29:48;;;;;;;1.63;1.40;;;;;;;;;;5093561;28;20450;-67
2022/12/29 01:32:15;;;;;;;1.40;1.30;;;;;;;;;;5093497;28;20533;-67
2022/12/29 01:34:42;;;;;;;1.73;1.63;;;;;;;;;;5093319;28;20443;-67
2022/12/29 01:37:09;;;;;;;1.50;1.40;;;;;;;;;;5093280;28;20944;-67
2022/12/29 01:39:36;;;;;;;1.33;1.10;;;;;;;;;;5093128;28;20453;-67
2022/12/29 01:42:03;;;;;;;1.33;0.90;;;;;;;;;;5093493;28;20447;-67
2022/12/29 01:44:50;;;;;;;1.47;1.37;;;;;;;;;;5093151;28;20558;-67
2022/12/29 01:47:20;;;;;;;2.00;1.63;;;;;;;;;;5093105;28;20478;-67
2022/12/29 01:49:47;;;;;;;2.10;1.27;;;;;;;;;;5093095;28;20545;-67
2022/12/29 01:52:14;;;;;;;3.10;1.10;;;;;;;;;;5092882;28;20454;-67
2022/12/29 01:54:44;;;;;;;1.53;1.07;;;;;;;;;;5093231;28;20553;-67
2022/12/29 01:57:12;;;;;;;1.10;1.00;;;;;;;;;;5093107;28;20449;-67
2022/12/29 01:59:42;;;;;;;2.10;1.30;;;;;;;;;;5093068;28;20454;-67
2022/12/29 02:02:10;;;;;;;1.50;1.40;;;;;;;;;;5092989;28;20541;-67
2022/12/29 02:04:40;;;;;;;1.30;1.20;;;;;;;;;;5092849;28;20533;-67
2022/12/29 02:07:09;;;;;;;1.80;1.60;;;;;;;;;;5093070;28;20450;-67
2022/12/29 02:09:36;;;;;;;2.10;1.07;;;;;;;;;;5092906;28;20541;-67
2022/12/29 02:12:03;;;;;;;1.87;1.30;;;;;;;;;;5092931;28;20478;-67
2022/12/29 02:14:31;;;;;;;1.73;1.63;;;;;;;;;;5092803;28;20537;-67
2022/12/29 02:17:06;;;;;;;1.57;1.40;;;;;;;;;;5092729;28;20504;-67
2022/12/29 02:19:49;;;;;;;2.23;1.20;;;;;;;;;;5093216;28;20534;-67
2022/12/29 02:22:20;;;;;;;2.17;1.20;;;;;;;;;;5093006;28;20474;-67
2022/12/29 02:25:14;;;;;;;1.37;1.10;;;;;;;;;;5092720;28;20485;-67
2022/12/29 02:27:45;;;;;;;1.57;1.20;;;;;;;;;;5092642;28;20539;-67
2022/12/29 02:30:31;;;;;;;1.33;1.23;;;;;;;;;;5092891;28;20443;-67
2022/12/29 02:33:00;;;;;;;1.30;1.20;;;;;;;;;;5092780;28;20529;-67
2022/12/29 02:35:31;;;;;;;2.10;1.13;;;;;;;;;;5093448;28;20450;-67
2022/12/29 02:38:00;;;;;;;1.30;1.20;;;;;;;;;;5096604;28;20845;-67
2022/12/29 02:40:33;;;;;;;1.10;1.00;;;;;;;;;;5096785;28;20533;-67
2022/12/29 02:43:03;;;;;;;1.13;1.03;;;;;;;;;;5096996;28;20645;-67
2022/12/29 02:45:33;;;;;;;1.40;1.30;;;;;;;;;;5096524;28;20471;-67
2022/12/29 02:48:05;;;;;;;1.50;1.13;;;;;;;;;;5096593;28;20473;-67
2022/12/29 02:50:35;;;;;;;1.50;1.10;;;;;;;;;;5096472;28;20450;-67
2022/12/29 02:53:03;;;;;;;1.70;1.60;;;;;;;;;;5096689;28;20454;-67
2022/12/29 02:55:29;;;;;;;1.40;1.30;;;;;;;;;;5096587;28;20805;-67
2022/12/29 02:58:15;;;;;;;1.37;1.27;;;;;;;;;;5096529;28;20546;-67
2022/12/29 03:00:57;;;;;;;1.23;1.13;;;;;;;;;;5096288;28;20453;-67
2022/12/29 03:03:30;;;;;;;1.30;1.20;;;;;;;;;;5096425;28;20504;-67
2022/12/29 03:06:06;;;;;;;2.23;1.30;;;;;;;;;;5096420;28;20457;-67
2022/12/29 03:08:38;;;;;;;1.73;1.40;;;;;;;;;;5096333;28;20446;-67
2022/12/29 03:11:06;;;;;;;1.50;1.30;;;;;;;;;;5096274;28;20447;-67
2022/12/29 03:16:25;;;;;;;1.40;1.30;;;;;;;;;;5096501;28;20461;-67
2022/12/29 03:18:59;;;;;;;1.93;1.47;;;;;;;;;;5096061;28;20445;-67
2022/12/29 03:22:26;;;;;;;1.77;1.27;;;;;;;;;;5096259;28;20453;-67
2022/12/29 03:24:21;;;;;;;2.63;1.27;;;;;;;;;;5095554;28;20981;-67
2022/12/29 03:26:49;;;;;;;1.27;1.17;;;;;;;;;;5095980;28;20443;-67
2022/12/29 03:29:17;;;;;;;1.40;1.30;;;;;;;;;;5096043;28;20481;-67
2022/12/29 03:31:46;;;;;;;1.20;1.10;;;;;;;;;;5095771;28;20447;-67
2022/12/29 03:34:13;;;;;;;1.30;1.20;;;;;;;;;;5095772;28;20455;-67
2022/12/29 03:36:44;;;;;;;1.30;1.10;;;;;;;;;;5095890;28;20486;-67
2022/12/29 03:39:12;;;;;;;1.13;1.03;;;;;;;;;;5095696;28;20459;-67
2022/12/29 03:41:41;;;;;;;1.47;1.37;;;;;;;;;;5095644;28;20815;-67
2022/12/29 03:44:08;;;;;;;2.00;1.23;;;;;;;;;;5095341;28;20561;-67
2022/12/29 03:46:35;;;;;;;1.97;1.30;;;;;;;;;;5095029;28;20542;-67
2022/12/29 03:49:04;;;;;;;1.30;1.20;;;;;;;;;;5095230;28;20539;-67
2022/12/29 03:51:31;;;;;;;1.60;1.50;;;;;;;;;;5095603;28;20541;-67
2022/12/29 03:53:58;;;;;;;1.30;1.20;;;;;;;;;;5095804;28;20479;-67
2022/12/29 03:56:24;;;;;;;1.37;1.23;;;;;;;;;;5095398;28;20447;-67
2022/12/29 03:58:51;;;;;;;1.50;1.40;;;;;;;;;;5095265;28;21012;-67
2022/12/29 04:01:18;;;;;;;1.50;1.13;;;;;;;;;;5095080;28;20538;-67
2022/12/29 04:03:45;;;;;;;1.50;1.40;;;;;;;;;;5095367;28;20483;-67
2022/12/29 04:06:13;;;;;;;1.23;1.13;;;;;;;;;;5095227;28;20560;-67
2022/12/29 04:08:40;;;;;;;1.07;0.97;;;;;;;;;;5095155;28;20533;-67
2022/12/29 04:11:07;;;;;;;2.90;1.40;;;;;;;;;;5095020;28;20532;-67
2022/12/29 04:13:34;;;;;;;1.30;1.20;;;;;;;;;;5094937;28;20547;-67
2022/12/29 04:16:01;;;;;;;1.50;1.40;;;;;;;;;;5094824;28;20533;-67
2022/12/29 04:18:28;;;;;;;1.37;1.20;;;;;;;;;;5095012;28;20449;-67
2022/12/29 04:21:02;;;;;;;2.60;1.30;;;;;;;;;;5094955;28;20541;-67
2022/12/29 04:23:31;;;;;;;1.90;1.70;;;;;;;;;;5094870;28;20877;-66
2022/12/29 04:25:58;;;;;;;1.50;1.40;;;;;;;;;;5094711;28;20549;-66
2022/12/29 04:28:25;;;;;;;1.70;1.23;;;;;;;;;;5094646;28;20443;-67
2022/12/29 04:30:52;;;;;;;1.97;1.40;;;;;;;;;;5094546;28;21056;-66
2022/12/29 04:33:19;;;;;;;1.30;1.20;;;;;;;;;;5094755;28;20485;-66
2022/12/29 04:35:46;;;;;;;1.73;1.63;;;;;;;;;;5094870;28;20443;-67
2022/12/29 04:38:13;;;;;;;2.50;1.53;;;;;;;;;;5094532;28;20546;-67
2022/12/29 04:40:42;;;;;;;1.10;1.00;;;;;;;;;;5094449;28;20542;-67
2022/12/29 04:43:09;;;;;;;1.77;1.33;;;;;;;;;;5094217;28;20526;-67
2022/12/29 04:45:36;;;;;;;2.33;1.40;;;;;;;;;;5094215;28;20479;-67
2022/12/29 04:48:03;;;;;;;1.33;1.23;;;;;;;;;;5094365;28;20541;-67
2022/12/29 04:50:30;;;;;;;1.27;1.17;;;;;;;;;;5094267;28;20541;-67
2022/12/29 04:52:57;;;;;;;2.40;1.30;;;;;;;;;;5094203;28;20447;-66
2022/12/29 04:55:24;;;;;;;2.33;1.30;;;;;;;;;;5094067;28;20817;-66
2022/12/29 04:57:52;;;;;;;1.23;1.13;;;;;;;;;;5094284;28;20515;-66
2022/12/29 05:00:20;;;;;;;2.40;1.37;;;;;;;;;;5094193;28;20447;-67
2022/12/29 05:02:47;;;;;;;1.47;1.37;;;;;;;;;;5094130;28;20443;-67
2022/12/29 05:05:14;;;;;;;1.47;1.37;;;;;;;;;;5093933;28;20510;-67
2022/12/29 05:07:41;;;;;;;1.67;1.20;;;;;;;;;;5093817;28;20451;-67
2022/12/29 05:10:09;;;;;;;2.13;1.20;;;;;;;;;;5093817;28;20530;-67
2022/12/29 05:12:36;;;;;;;2.27;1.43;;;;;;;;;;5094004;28;20881;-66
2022/12/29 05:15:05;;;;;;;2.03;1.20;;;;;;;;;;5093945;28;20477;-67
2022/12/29 05:17:33;;;;;;;2.27;1.70;;;;;;;;;;5093788;28;20447;-67
2022/12/29 05:20:00;;;;;;;1.40;1.30;;;;;;;;;;5093785;28;20489;-66
2022/12/29 05:22:27;;;;;;;1.30;1.13;;;;;;;;;;5093614;28;20451;-67
2022/12/29 05:24:53;;;;;;;1.40;1.30;;;;;;;;;;5093718;28;20565;-67
2022/12/29 05:27:20;;;;;;;1.60;1.50;;;;;;;;;;5093711;28;20457;-67
2022/12/29 05:29:47;;;;;;;1.37;1.27;;;;;;;;;;5093631;28;20473;-67
2022/12/29 05:32:16;;;;;;;2.03;1.50;;;;;;;;;;5093599;28;20814;-67
2022/12/29 05:34:43;;;;;;;1.60;1.50;;;;;;;;;;5093603;28;20451;-67
2022/12/29 05:37:09;;;;;;;2.60;1.30;;;;;;;;;;5093333;28;21026;-67
2022/12/29 05:39:36;;;;;;;1.27;1.10;;;;;;;;;;5093457;28;20442;-67
2022/12/29 05:42:04;;;;;;;1.50;1.40;;;;;;;;;;5093489;28;20447;-67
2022/12/29 05:44:31;;;;;;;2.30;1.40;;;;;;;;;;5093204;28;20489;-67
2022/12/29 05:46:57;;;;;;;1.43;1.33;;;;;;;;;;5093348;28;20938;-67
2022/12/29 05:49:26;;;;;;;1.77;1.50;;;;;;;;;;5093222;28;20533;-67
2022/12/29 05:51:53;;;;;;;1.80;1.40;;;;;;;;;;5093164;28;20450;-66
2022/12/29 05:54:20;;;;;;;1.63;1.50;;;;;;;;;;5093369;28;21162;-67
2022/12/29 05:56:47;;;;;;;1.47;1.37;;;;;;;;;;5093532;28;20449;-67
2022/12/29 05:59:14;;;;;;;1.43;1.33;;;;;;;;;;5093151;28;20530;-67
2022/12/29 06:01:41;;;;;;;1.40;1.30;;;;;;;;;;5093511;28;20449;-67
2022/12/29 06:04:08;;;;;;;1.90;1.80;;;;;;;;;;5093066;28;20920;-67
2022/12/29 06:06:36;;;;;;;2.40;1.23;;;;;;;;;;5093092;28;20946;-67
2022/12/29 06:09:03;;;;;;;1.60;1.50;;;;;;;;;;5093362;28;20539;-67
2022/12/29 06:11:30;;;;;;;2.20;2.00;;;;;;;;;;5092552;28;20453;-66
2022/12/29 06:13:57;;;;;;;2.00;1.57;;;;;;;;;;5093109;28;20451;-67
2022/12/29 06:16:24;;;;;;;1.50;1.40;;;;;;;;;;5092937;28;20449;-67
2022/12/29 06:18:50;;;;;;;2.50;1.37;;;;;;;;;;5092878;28;20454;-67
2022/12/29 06:21:17;;;;;;;1.43;1.33;;;;;;;;;;5093079;28;21032;-67
2022/12/29 06:23:46;;;;;;;1.30;1.20;;;;;;;;;;5092828;28;20453;-66
2022/12/29 06:26:13;;;;;;;2.20;1.43;;;;;;;;;;5092945;28;20442;-66
2022/12/29 06:28:39;;;;;;;1.40;1.30;;;;;;;;;;5092842;28;20545;-66
2022/12/29 06:31:10;;;;;;;1.40;1.30;;;;;;;;;;5092760;28;20447;-66
2022/12/29 06:33:36;;;;;;;1.50;1.40;;;;;;;;;;5092746;28;20449;-66
2022/12/29 06:36:03;;;;;;;1.77;1.37;;;;;;;;;;5092925;28;20443;-66
2022/12/29 06:38:30;;;;;;;1.50;1.33;;;;;;;;;;5093049;28;20439;-67
2022/12/29 06:40:59;;;;;;;1.37;1.13;;;;;;;;;;5092899;28;20849;-66
2022/12/29 06:43:26;;;;;;;1.43;1.33;;;;;;;;;;5092710;28;20863;-66
2022/12/29 06:45:53;;;;;;;1.30;1.20;;;;;;;;;;5092438;28;20573;-67
2022/12/29 06:48:19;;;;;;;1.20;1.00;;;;;;;;;;5092796;28;20541;-67
2022/12/29 06:50:46;;;;;;;3.63;1.40;;;;;;;;;;5092672;28;20534;-66
2022/12/29 06:53:13;;;;;;;2.20;2.00;;;;;;;;;;5092637;28;20453;-66
2022/12/29 06:55:40;;;;;;;1.77;0.97;;;;;;;;;;5092646;28;20541;-66
2022/12/29 06:58:09;;;;;;;1.67;1.20;;;;;;;;;;5092509;28;20453;-66
2022/12/29 07:00:36;;;;;;;1.60;1.50;;;;;;;;;;5092440;28;20447;-66
2022/12/29 07:03:03;;;;;;;1.60;1.50;;;;;;;;;;5092563;28;20454;-66
2022/12/29 07:05:32;;;;;;;2.07;1.20;;;;;;;;;;5092475;28;20517;-66
2022/12/29 07:07:59;;;;;;;1.60;1.30;;;;;;;;;;5092504;28;20451;-66
2022/12/29 07:10:26;;;;;;;2.23;1.23;;;;;;;;;;5092412;28;20451;-66
2022/12/29 07:12:53;;;;;;;4.00;1.73;;;;;;;;;;5092201;28;20529;-66
2022/12/29 07:15:21;;;;;;;2.40;1.20;;;;;;;;;;5092583;28;20447;-66
2022/12/29 07:17:49;;;;;;;1.30;1.20;;;;;;;;;;5092487;28;20557;-67
2022/12/29 07:20:16;;;;;;;1.40;1.30;;;;;;;;;;5092430;28;20454;-67
2022/12/29 07:22:43;;;;;;;1.10;1.00;;;;;;;;;;5093448;28;20445;-66
2022/12/29 07:25:10;;;;;;;1.43;1.10;;;;;;;;;;5095862;28;20485;-66
2022/12/29 07:27:37;;;;;;;1.20;1.10;;;;;;;;;;5095771;28;20504;-67
2022/12/29 07:30:05;;;;;;;1.17;1.07;;;;;;;;;;5096016;28;20825;-67
2022/12/29 07:32:35;;;;;;;1.90;1.17;;;;;;;;;;5095886;28;20874;-66
2022/12/29 07:35:02;;;;;;;1.53;1.20;;;;;;;;;;5095869;28;20455;-66
2022/12/29 07:37:29;;;;;;;1.37;1.27;;;;;;;;;;5095746;28;20870;-66
2022/12/29 07:39:56;;;;;;;2.27;1.60;;;;;;;;;;5095513;28;20447;-66
2022/12/29 07:42:23;;;;;;;1.73;1.60;;;;;;;;;;5095355;28;20546;-66
2022/12/29 07:44:50;;;;;;;1.30;1.20;;;;;;;;;;5095351;28;20479;-67
2022/12/29 07:47:17;;;;;;;1.17;0.90;;;;;;;;;;5095554;28;20484;-66
2022/12/29 07:49:45;;;;;;;1.67;1.50;;;;;;;;;;5095569;28;20447;-66
2022/12/29 07:52:12;;;;;;;1.50;1.40;;;;;;;;;;5095299;28;20886;-66
2022/12/29 07:54:39;;;;;;;1.20;1.10;;;;;;;;;;5095147;28;21001;-66
2022/12/29 07:57:06;;;;;;;1.80;1.17;;;;;;;;;;5095428;28;20449;-67
2022/12/29 07:59:33;;;;;;;0.83;0.83;;;;;;;;;;5095390;28;20451;-67
2022/12/29 08:02:00;;;;;;;4.70;1.63;;;;;;;;;;5095465;28;20818;-66
2022/12/29 08:04:27;;;;;;;1.83;1.40;;;;;;;;;;5095292;28;20477;-66
2022/12/29 08:06:55;;;;;;;1.33;1.23;;;;;;;;;;5095180;28;20447;-66
2022/12/29 08:09:22;;;;;;;1.20;1.10;;;;;;;;;;5094920;28;20554;-66
2022/12/29 08:11:49;;;;;;;1.57;1.47;;;;;;;;;;5094978;28;21056;-66
2022/12/29 08:14:16;;;;;;;2.00;1.10;;;;;;;;;;5095081;28;20874;-66
2022/12/29 08:16:43;;;;;;;2.10;1.43;;;;;;;;;;5094945;28;20439;-66
2022/12/29 08:19:11;;;;;;;2.33;1.20;;;;;;;;;;5094925;28;20530;-66
2022/12/29 08:21:38;;;;;;;1.40;1.30;;;;;;;;;;5094744;28;20465;-66
2022/12/29 08:24:07;;;;;;;1.37;1.27;;;;;;;;;;5095025;28;20874;-66
2022/12/29 08:26:34;;;;;;;1.17;1.03;;;;;;;;;;5094797;28;20497;-66
2022/12/29 08:29:01;;;;;;;1.10;1.00;;;;;;;;;;5094854;28;20832;-66
2022/12/29 08:31:28;;;;;;;3.27;1.30;;;;;;;;;;5094628;28;21034;-66
2022/12/29 08:33:55;;;;;;;1.43;1.20;;;;;;;;;;5094163;28;20545;-66
2022/12/29 08:36:22;;;;;;;1.50;1.40;;;;;;;;;;5094489;28;20538;-66
2022/12/29 08:38:49;;;;;;;2.30;1.47;;;;;;;;;;5094566;28;20443;-66
2022/12/29 08:41:17;;;;;;;1.83;1.40;;;;;;;;;;5094509;28;20859;-66
2022/12/29 08:43:46;;;;;;;1.30;1.20;;;;;;;;;;5094432;28;20533;-66
2022/12/29 08:46:13;;;;;;;1.33;1.23;;;;;;;;;;5094120;28;20578;-66
2022/12/29 08:48:40;;;;;;;1.30;1.20;;;;;;;;;;5093773;28;20543;-63
2022/12/29 08:51:08;;;;;;;5.30;3.67;;;;;;;;;;5094297;28;20220;-51
2022/12/29 08:53:35;;;;;;;1.73;1.03;;;;;;;;;;5094238;28;20451;-65
2022/12/29 08:56:02;;;;;;;2.07;1.00;;;;;;;;;;5094350;28;20538;-62
2022/12/29 08:58:30;;;;;;;1.87;1.20;;;;;;;;;;5094170;28;20885;-71
2022/12/29 09:00:58;;;;;;;2.17;1.20;;;;;;;;;;5094505;28;20542;-61
2022/12/29 09:03:25;;;;;;;2.87;1.17;;;;;;;;;;5093815;28;20541;-61
2022/12/29 09:05:53;;;;;;;1.10;1.00;;;;;;;;;;5093717;28;20573;-61
2022/12/29 09:08:20;;;;;;;1.30;1.03;;;;;;;;;;5093726;28;20451;-62
2022/12/29 09:10:47;;;;;;;1.40;1.30;;;;;;;;;;5093907;28;20537;-73
2022/12/29 09:13:15;;;;;;;3.63;1.03;;;;;;;;;;5093888;28;20889;-62
2022/12/29 09:15:44;;;;;;;1.40;1.30;;;;;;;;;;5093771;28;20469;-62
2022/12/29 09:18:11;;;;;;;2.33;1.00;;;;;;;;;;5093692;28;20851;-62
2022/12/29 09:20:39;;;;;;;1.10;1.00;;;;;;;;;;5093456;28;20447;-63
2022/12/29 09:23:06;;;;;;;3.00;1.43;;;;;;;;;;5093714;28;20450;-65
2022/12/29 09:25:33;;;;;;;5.73;1.23;;;;;;;;;;5093373;28;20485;-63
2022/12/29 09:28:02;;;;;;;1.10;1.00;;;;;;;;;;5093612;28;20539;-63
2022/12/29 09:30:29;;;;;;;1.20;1.10;;;;;;;;;;5093388;28;20851;-63
2022/12/29 09:32:57;;;;;;;1.10;1.00;;;;;;;;;;5093720;28;20980;-63
2022/12/29 09:35:24;;;;;;;3.10;1.53;;;;;;;;;;5093518;28;20545;-66
2022/12/29 09:37:51;;;;;;;1.80;1.27;;;;;;;;;;5093341;28;20531;-63
2022/12/29 09:40:23;;;;;;;3.30;1.67;;;;;;;;;;5093173;28;20455;-65
2022/12/29 09:42:57;;;;;;;1.10;1.00;;;;;;;;;;5093248;28;20546;-65
2022/12/29 09:45:29;;;;;;;1.20;1.10;;;;;;;;;;5092314;28;20494;-62
2022/12/29 09:47:57;;;;;;;1.97;1.10;;;;;;;;;;5093695;28;20453;-67
2022/12/29 09:50:26;;;;;;;1.37;1.27;;;;;;;;;;5093156;28;21025;-68
2022/12/29 09:52:56;;;;;;;1.23;1.13;;;;;;;;;;5093031;28;20458;-60
2022/12/29 09:55:24;;;;;;;1.17;1.07;;;;;;;;;;5092767;28;20542;-62
2022/12/29 09:57:55;;;;;;;1.20;1.00;;;;;;;;;;5090909;28;20437;-62
2022/12/29 10:00:23;;;;;;;3.10;1.00;;;;;;;;;;5093282;28;20934;-62
2022/12/29 10:02:51;;;;;;;2.30;1.07;;;;;;;;;;5079843;28;20446;-63
2022/12/29 10:05:26;;;;;;;1.00;0.90;;;;;;;;;;5072777;28;20560;-71
2022/12/29 10:07:57;;;;;;;2.20;1.20;;;;;;;;;;5072803;28;20538;-63
2022/12/29 10:10:31;;;;;;;1.00;0.70;;;;;;;;;;5072768;28;20544;-62
2022/12/29 10:13:02;;;;;;;0.97;0.97;;;;;;;;;;5072657;28;20812;-63
2022/12/29 10:15:35;;;;;;;1.10;0.93;;;;;;;;;;5072687;28;20896;-61
2022/12/29 10:18:06;;;;;;;1.57;0.80;;;;;;;;;;5072660;28;20483;-62
2022/12/29 10:20:38;;;;;;;1.60;0.90;;;;;;;;;;5072598;28;21069;-62
2022/12/29 10:23:21;;;;;;;1.63;1.00;;;;;;;;;;5072859;28;20451;-60
2022/12/29 10:25:48;;;;;;;1.80;1.60;;;;;;;;;;5072525;28;20788;-60
2022/12/29 10:28:19;;;;;;;2.33;1.10;;;;;;;;;;5072476;28;20488;-62
2022/12/29 10:30:47;;;;;;;1.37;0.90;;;;;;;;;;5072675;28;20481;-66
2022/12/29 10:33:18;;;;;;;1.67;1.40;;;;;;;;;;5072608;28;20838;-61
2022/12/29 10:35:47;;;;;;;1.73;1.20;;;;;;;;;;5072563;28;20551;-65
2022/12/29 10:38:17;;;;;;;1.50;1.23;;;;;;;;;;5072542;28;20456;-64
2022/12/29 10:40:44;;;;;;;1.00;0.90;;;;;;;;;;5072415;28;20454;-64
2022/12/29 10:43:19;;;;;;;1.63;1.20;;;;;;;;;;5072462;28;20448;-66
2022/12/29 10:45:46;;;;;;;3.33;1.00;;;;;;;;;;5072259;28;20905;-65
2022/12/29 10:48:19;;;;;;;1.47;1.37;;;;;;;;;;5072390;28;20453;-62
2022/12/29 10:50:47;;;;;;;1.57;0.90;;;;;;;;;;5072594;28;20452;-63
2022/12/29 10:53:19;;;;;;;1.73;1.20;;;;;;;;;;5072316;28;20531;-67
2022/12/29 10:55:46;;;;;;;0.87;0.80;;;;;;;;;;5072167;28;20969;-63
2022/12/29 10:58:15;;;;;;;1.07;0.97;;;;;;;;;;5075961;28;20446;-63
2022/12/29 11:00:43;;;;;;;2.17;1.33;;;;;;;;;;5076351;28;20448;-63
2022/12/29 11:03:34;;;;;;;1.20;0.93;;;;;;;;;;5075906;28;20450;-63
2022/12/29 11:06:05;;;;;;;1.70;1.10;;;;;;;;;;5060732;28;20572;-63
2022/12/29 11:08:34;;;;;;;1.43;1.30;;;;;;;;;;5076118;28;20523;-63
2022/12/29 11:11:02;;;;;;;1.73;1.53;;;;;;;;;;5076290;28;20446;-63
2022/12/29 11:13:30;;;;;;;4.50;1.10;;;;;;;;;;5076164;28;20536;-63
2022/12/29 11:15:57;;;;;;;1.57;1.47;;;;;;;;;;5075859;28;20541;-63
2022/12/29 11:18:25;;;;;;;1.37;1.10;;;;;;;;;;5075865;28;20478;-63
2022/12/29 11:20:53;;;;;;;1.43;1.10;;;;;;;;;;5075766;28;20539;-64
2022/12/29 11:23:27;;;;;;;1.27;1.17;;;;;;;;;;5075887;28;20502;-63
2022/12/29 11:26:14;;;;;;;1.00;0.90;;;;;;;;;;5075807;28;20510;-64
2022/12/29 11:28:42;;;;;;;1.10;1.00;;;;;;;;;;5075721;28;20456;-63
2022/12/29 11:31:10;;;;;;;6.10;1.30;;;;;;;;;;5075523;28;20483;-63
2022/12/29 11:33:37;;;;;;;0.90;0.90;;;;;;;;;;5075742;28;20880;-61
2022/12/29 11:36:06;;;;;;;1.97;1.03;;;;;;;;;;5075311;28;20535;-64
2022/12/29 11:38:36;;;;;;;1.40;1.23;;;;;;;;;;5075466;28;20448;-63
2022/12/29 11:41:03;;;;;;;2.50;0.97;;;;;;;;;;5075368;28;20532;-59
2022/12/29 11:43:34;;;;;;;1.60;1.30;;;;;;;;;;5075456;28;20551;-61
2022/12/29 11:46:03;;;;;;;1.30;0.97;;;;;;;;;;5075298;28;20486;-62
2022/12/29 11:48:31;;;;;;;0.90;0.73;;;;;;;;;;5075445;28;20473;-65
2022/12/29 11:51:00;;;;;;;4.50;0.97;;;;;;;;;;5075295;28;20451;-65
2022/12/29 11:53:28;;;;;;;2.10;1.20;;;;;;;;;;5075174;28;20456;-64
2022/12/29 11:55:58;;;;;;;1.43;1.20;;;;;;;;;;5074793;28;20463;-59
2022/12/29 11:58:32;;;;;;;1.10;1.00;;;;;;;;;;5074980;28;20452;-60
2022/12/29 12:01:00;;;;;;;4.60;2.00;;;;;;;;;;5074877;28;20451;-60
2022/12/29 12:03:29;;;;;;;1.70;1.60;;;;;;;;;;5075022;28;20457;-60
2022/12/29 12:05:59;;;;;;;2.30;1.20;;;;;;;;;;5074770;28;20475;-60
2022/12/29 12:08:33;;;;;;;4.23;1.53;;;;;;;;;;5073934;28;20453;-60
2022/12/29 12:11:05;;;;;;;2.10;1.20;;;;;;;;;;5074810;28;20464;-60
2022/12/29 12:13:35;;;;;;;2.40;1.20;;;;;;;;;;5074842;28;20534;-60
2022/12/29 12:16:05;;;;;;;1.53;1.00;;;;;;;;;;5074735;28;20482;-60
2022/12/29 12:18:35;;;;;;;1.50;1.40;;;;;;;;;;5074980;28;20454;-60
2022/12/29 12:21:06;;;;;;;1.30;1.20;;;;;;;;;;5074953;28;20454;-60
2022/12/29 12:23:38;;;;;;;1.30;1.20;;;;;;;;;;5074446;28;20603;-60
2022/12/29 12:26:11;;;;;;;2.00;1.33;;;;;;;;;;5074290;28;21017;-60
2022/12/29 12:28:41;;;;;;;4.73;2.67;;;;;;;;;;5074446;28;20633;-60
2022/12/29 12:31:15;;;;;;;2.10;1.90;;;;;;;;;;5074390;28;20543;-60
2022/12/29 12:33:43;;;;;;;1.90;1.10;;;;;;;;;;5074345;28;20873;-60
2022/12/29 12:36:21;;;;;;;1.20;1.10;;;;;;;;;;5074562;28;20536;-59
2022/12/29 12:38:51;;;;;;;5.70;1.17;;;;;;;;;;5074387;28;20449;-60
2022/12/29 12:41:23;;;;;;;1.43;1.20;;;;;;;;;;5074233;28;20989;-60
2022/12/29 12:43:52;;;;;;;1.10;0.93;;;;;;;;;;5074153;28;20454;-60
2022/12/29 12:46:21;;;;;;;1.43;1.33;;;;;;;;;;5073857;28;20579;-60
2022/12/29 12:48:57;;;;;;;1.23;1.13;;;;;;;;;;5074261;28;20447;-60
2022/12/29 12:51:28;;;;;;;1.30;1.20;;;;;;;;;;5074207;28;20542;-60
2022/12/29 12:54:02;;;;;;;1.00;0.90;;;;;;;;;;5074060;28;20547;-60
2022/12/29 12:56:43;;;;;;;1.40;1.30;;;;;;;;;;5073932;28;20460;-60
2022/12/29 12:59:17;;;;;;;1.30;1.10;;;;;;;;;;5074095;28;20954;-60
2022/12/29 13:01:51;;;;;;;1.40;1.30;;;;;;;;;;5073993;28;20484;-60
2022/12/29 13:04:28;;;;;;;2.07;1.87;;;;;;;;;;5073888;28;20542;-60
2022/12/29 13:06:59;;;;;;;1.70;1.60;;;;;;;;;;5073627;28;20574;-60
2022/12/29 13:09:30;;;;;;;1.30;1.20;;;;;;;;;;5073554;28;20455;-60
2022/12/29 13:12:05;;;;;;;0.83;0.83;;;;;;;;;;5073854;28;20455;-60
2022/12/29 13:14:39;;;;;;;0.70;0.70;;;;;;;;;;5073935;28;20446;-60
2022/12/29 13:17:09;;;;;;;0.80;0.80;;;;;;;;;;5073622;28;20451;-60
2022/12/29 13:19:42;;;;;;;0.97;0.87;;;;;;;;;;5073276;28;20973;-60
2022/12/29 13:22:12;;;;;;;0.90;0.70;;;;;;;;;;5073559;28;20544;-60
2022/12/29 13:24:44;;;;;;;1.73;0.80;;;;;;;;;;5073413;28;20544;-60
2022/12/29 13:27:15;;;;;;;0.90;0.77;;;;;;;;;;5073264;28;20489;-60
2022/12/29 13:29:47;;;;;;;0.77;0.77;;;;;;;;;;5073395;28;20474;-60
2022/12/29 13:32:22;;;;;;;1.40;1.30;;;;;;;;;;5073302;28;20455;-60
2022/12/29 13:34:54;;;;;;;2.03;1.80;;;;;;;;;;5073336;28;20456;-60
2022/12/29 13:37:23;;;;;;;1.20;1.10;;;;;;;;;;5073293;28;20450;-60
2022/12/29 13:39:52;;;;;;;1.23;1.13;;;;;;;;;;5073232;28;20460;-60
2022/12/29 13:42:21;;;;;;;2.07;0.90;;;;;;;;;;5073162;28;20459;-60
2022/12/29 13:44:49;;;;;;;1.13;1.00;;;;;;;;;;5072964;28;20906;-60
2022/12/29 13:47:22;;;;;;;1.20;1.10;;;;;;;;;;5072695;28;21074;-60
2022/12/29 13:49:51;;;;;;;1.10;1.00;;;;;;;;;;5073134;28;20432;-60
2022/12/29 13:52:23;;;;;;;1.43;1.33;;;;;;;;;;5073101;28;20451;-60
2022/12/29 13:55:03;;;;;;;1.20;1.07;;;;;;;;;;5072911;28;20547;-60
2022/12/29 13:57:38;;;;;;;4.10;1.40;;;;;;;;;;5073148;28;20463;-60
2022/12/29 14:00:12;;;;;;;2.22;1.90;;;;;;;;;;5071992;28;20912;-60
2022/12/29 14:02:44;;;;;;;2.03;1.93;;;;;;;;;;5072936;28;20189;-60
2022/12/29 14:05:26;;;;;;;2.17;1.87;;;;;;;;;;5072953;28;20831;-59
2022/12/29 14:07:58;;;;;;;4.30;1.50;;;;;;;;;;5073025;28;20570;-60
2022/12/29 14:10:28;;;;;;;2.40;1.30;;;;;;;;;;5073032;28;20543;-60
2022/12/29 14:13:03;;;;;;;1.20;1.10;;;;;;;;;;5072972;28;20867;-60
2022/12/29 14:15:30;;;;;;;1.23;1.13;;;;;;;;;;5072780;28;20461;-60
2022/12/29 14:18:06;;;;;;;0.87;0.87;;;;;;;;;;5072649;28;20448;-60
2022/12/29 14:20:33;;;;;;;3.07;1.20;;;;;;;;;;5072871;28;20451;-60
2022/12/29 14:23:01;;;;;;;1.27;0.90;;;;;;;;;;5072800;28;20559;-60
2022/12/29 14:25:43;;;;;;;1.20;1.10;;;;;;;;;;5072687;28;20482;-60
2022/12/29 14:28:23;;;;;;;1.13;1.00;;;;;;;;;;5060218;28;20476;-61
2022/12/29 14:30:52;;;;;;;1.10;1.00;;;;;;;;;;5072785;28;20450;-60
2022/12/29 14:33:20;;;;;;;2.33;1.47;;;;;;;;;;5077143;28;20480;-60
2022/12/29 14:35:49;;;;;;;1.60;1.50;;;;;;;;;;5076804;28;20492;-60
2022/12/29 14:38:27;;;;;;;1.20;1.10;;;;;;;;;;5076747;28;20535;-60
2022/12/29 14:40:54;;;;;;;2.43;1.20;;;;;;;;;;5076530;28;20539;-60
2022/12/29 14:43:27;;;;;;;1.53;1.00;;;;;;;;;;5076653;28;20879;-60
2022/12/29 14:45:55;;;;;;;2.17;1.37;;;;;;;;;;5076456;28;20914;-60
2022/12/29 14:48:34;;;;;;;1.30;1.20;;;;;;;;;;5076465;28;20483;-60
2022/12/29 14:51:01;;;;;;;1.20;1.10;;;;;;;;;;5076414;28;20906;-60
2022/12/29 14:53:43;;;;;;;1.13;1.03;;;;;;;;;;5076152;28;20524;-60
2022/12/29 14:56:10;;;;;;;2.13;1.83;;;;;;;;;;5076326;28;20459;-60
2022/12/29 14:58:43;;;;;;;1.53;1.43;;;;;;;;;;5076296;28;20498;-60
2022/12/29 15:01:18;;;;;;;1.50;1.40;;;;;;;;;;5076223;28;20459;-60
2022/12/29 15:03:46;;;;;;;1.53;1.43;;;;;;;;;;5076076;28;20897;-60
2022/12/29 15:06:18;;;;;;;1.77;1.67;;;;;;;;;;5076344;28;20452;-60
2022/12/29 15:08:48;;;;;;;4.70;1.50;;;;;;;;;;5076126;28;20441;-60
2022/12/29 15:11:16;;;;;;;1.57;1.40;;;;;;;;;;5076256;28;20563;-60
2022/12/29 15:13:45;;;;;;;1.70;1.60;;;;;;;;;;5076052;28;20444;-60
2022/12/29 15:16:22;;;;;;;1.40;1.20;;;;;;;;;;5075830;28;20483;-60
2022/12/29 15:18:49;;;;;;;6.70;1.60;;;;;;;;;;5075907;28;20546;-60
2022/12/29 15:21:16;;;;;;;1.67;1.57;;;;;;;;;;5075947;28;20447;-60
2022/12/29 15:23:44;;;;;;;1.57;1.47;;;;;;;;;;5075808;28;20858;-60
2022/12/29 15:26:11;;;;;;;1.90;1.80;;;;;;;;;;5075738;28;20606;-60